Time;durP1;ratioP1;P1;durP2;ratioP2;P2;SDS_P1;SDS_P2;PMS_P1;PMS_P2;Temp;Humidity;BMP_temperature;BMP_pressure;BME280_temperature;BME280_humidity;BME280_pressure;Samples;Min_cycle;Max_cycle;Signal;HPM_P1;HPM_P2
2022/03/13 00:00:44;;;;;;;;;;;5.40;99.90;;;;;;4785064;29;19928;-78
2022/03/13 00:03:10;;;;;;;;;;;5.40;99.90;;;;;;4786686;29;20354;-77
2022/03/13 00:05:40;;;;;;;;;;;5.30;99.90;;;;;;4784456;29;19921;-78
2022/03/13 00:08:19;;;;;;;;;;;5.30;99.90;;;;;;4790160;29;19925;-78
2022/03/13 00:10:47;;;;;;;;;;;5.30;99.90;;;;;;4788932;29;19933;-77
2022/03/13 00:13:14;;;;;;;;;;;5.20;99.90;;;;;;4773431;29;19921;-77
2022/03/13 00:15:40;;;;;;;;;;;5.20;99.90;;;;;;4790253;29;20067;-78
2022/03/13 00:18:06;;;;;;;;;;;5.10;99.90;;;;;;4790713;29;20406;-77
2022/03/13 00:20:33;;;;;;;;;;;5.10;99.90;;;;;;4789700;29;19929;-78
2022/03/13 00:22:58;;;;;;;;;;;5.10;99.90;;;;;;4790010;29;20064;-77
2022/03/13 00:25:25;;;;;;;;;;;5.00;99.90;;;;;;4790202;29;19996;-78
2022/03/13 00:27:51;;;;;;;;;;;4.80;99.90;;;;;;4789803;29;19928;-78
2022/03/13 00:30:16;;;;;;;;;;;4.70;99.90;;;;;;4790121;29;19940;-78
2022/03/13 00:32:42;;;;;;;;;;;4.60;99.90;;;;;;4790148;29;20284;-78
2022/03/13 00:35:07;;;;;;;;;;;4.60;99.90;;;;;;4789782;29;19921;-77
2022/03/13 00:37:33;;;;;;;;;;;4.50;99.90;;;;;;4773545;29;20076;-77
2022/03/13 00:40:00;;;;;;;;;;;4.50;99.90;;;;;;4789780;29;19932;-78
2022/03/13 00:42:25;;;;;;;;;;;4.50;99.90;;;;;;4789981;29;20018;-78
2022/03/13 00:44:51;;;;;;;;;;;4.40;99.90;;;;;;4789426;29;19960;-77
2022/03/13 00:47:18;;;;;;;;;;;4.40;99.90;;;;;;4787421;29;19971;-78
2022/03/13 00:49:44;;;;;;;;;;;4.40;99.90;;;;;;4789475;29;19925;-78
2022/03/13 00:52:09;;;;;;;;;;;4.30;99.90;;;;;;4790070;29;20009;-77
2022/03/13 00:54:35;;;;;;;;;;;4.40;99.90;;;;;;4789130;29;20037;-78
2022/03/13 00:57:00;;;;;;;;;;;4.40;99.90;;;;;;4789337;29;19929;-77
2022/03/13 00:59:26;;;;;;;;;;;4.30;99.90;;;;;;4789748;29;20304;-77
2022/03/13 01:01:51;;;;;;;;;;;4.30;99.90;;;;;;4789685;29;19931;-78
2022/03/13 01:04:17;;;;;;;;;;;4.50;99.90;;;;;;4789990;29;19925;-78
2022/03/13 01:06:43;;;;;;;;;;;4.40;99.90;;;;;;4789146;29;19921;-77
2022/03/13 01:09:09;;;;;;;;;;;4.50;99.90;;;;;;4789392;29;20301;-77
2022/03/13 01:11:34;;;;;;;;;;;4.40;99.90;;;;;;4789173;29;19937;-77
2022/03/13 01:14:00;;;;;;;;;;;4.50;99.90;;;;;;4774279;29;19921;-77
2022/03/13 01:16:27;;;;;;;;;;;4.50;99.90;;;;;;4789213;29;19928;-77
2022/03/13 01:18:56;;;;;;;;;;;4.50;99.90;;;;;;4789596;29;19925;-78
2022/03/13 01:21:22;;;;;;;;;;;4.60;99.90;;;;;;4789192;29;20964;-78
2022/03/13 01:23:57;;;;;;;;;;;4.60;99.90;;;;;;4789325;29;19921;-78
2022/03/13 01:26:22;;;;;;;;;;;4.60;99.90;;;;;;4791397;29;19921;-79
2022/03/13 01:28:52;;;;;;;;;;;4.60;99.90;;;;;;4792371;29;20336;-78
2022/03/13 01:31:21;;;;;;;;;;;4.60;99.90;;;;;;4791462;29;19968;-78
2022/03/13 01:33:46;;;;;;;;;;;4.60;99.90;;;;;;4793059;29;19928;-78
2022/03/13 01:36:12;;;;;;;;;;;4.60;99.90;;;;;;4791270;29;19921;-78
2022/03/13 01:38:38;;;;;;;;;;;4.60;99.90;;;;;;4792088;29;19928;-78
2022/03/13 01:41:04;;;;;;;;;;;4.60;99.90;;;;;;4791666;29;20048;-78
2022/03/13 01:43:31;;;;;;;;;;;4.50;99.90;;;;;;4793176;29;20345;-78
2022/03/13 01:46:00;;;;;;;;;;;4.50;99.90;;;;;;4791405;29;19927;-78
2022/03/13 01:48:26;;;;;;;;;;;4.60;99.90;;;;;;4790829;29;19933;-78
2022/03/13 01:50:52;;;;;;;;;;;4.50;99.90;;;;;;4792530;29;20327;-78
2022/03/13 01:53:18;;;;;;;;;;;4.60;99.90;;;;;;4790428;29;19970;-78
2022/03/13 01:55:44;;;;;;;;;;;4.70;99.90;;;;;;4789056;29;19947;-79
2022/03/13 01:58:09;;;;;;;;;;;4.70;99.90;;;;;;4789150;29;19928;-78
2022/03/13 02:00:35;;;;;;;;;;;4.70;99.90;;;;;;4788875;29;20012;-78
2022/03/13 02:03:01;;;;;;;;;;;4.90;99.90;;;;;;4788660;29;19964;-78
2022/03/13 02:05:30;;;;;;;;;;;4.90;99.90;;;;;;4787653;29;19921;-78
2022/03/13 02:07:56;;;;;;;;;;;5.00;99.90;;;;;;4788133;29;19921;-78
2022/03/13 02:10:21;;;;;;;;;;;5.10;99.90;;;;;;4788971;29;20254;-78
2022/03/13 02:12:48;;;;;;;;;;;5.10;99.90;;;;;;4788429;29;20385;-78
2022/03/13 02:15:13;;;;;;;;;;;5.10;99.90;;;;;;4788245;29;19928;-78
2022/03/13 02:17:38;;;;;;;;;;;5.10;99.90;;;;;;4788015;29;19928;-78
2022/03/13 02:20:04;;;;;;;;;;;5.20;99.90;;;;;;4788346;29;20401;-78
2022/03/13 02:22:30;;;;;;;;;;;5.20;99.90;;;;;;4784342;29;19925;-78
2022/03/13 02:24:56;;;;;;;;;;;5.20;99.90;;;;;;4786951;29;20008;-78
2022/03/13 02:27:23;;;;;;;;;;;5.20;99.90;;;;;;4787325;29;20008;-78
2022/03/13 02:29:49;;;;;;;;;;;5.20;99.90;;;;;;4787897;29;20274;-78
2022/03/13 02:32:14;;;;;;;;;;;5.10;99.90;;;;;;4787901;29;19946;-78
2022/03/13 02:34:39;;;;;;;;;;;5.10;99.90;;;;;;4787704;29;19921;-78
2022/03/13 02:37:15;;;;;;;;;;;5.10;99.90;;;;;;4787825;29;19944;-78
2022/03/13 02:39:41;;;;;;;;;;;5.10;99.90;;;;;;4786764;29;20296;-78
2022/03/13 02:42:07;;;;;;;;;;;5.10;99.90;;;;;;4788011;29;20323;-78
2022/03/13 02:44:33;;;;;;;;;;;5.00;99.90;;;;;;4787510;29;19921;-78
2022/03/13 02:46:59;;;;;;;;;;;5.00;99.90;;;;;;4787417;29;19921;-78
2022/03/13 02:49:26;;;;;;;;;;;4.90;99.90;;;;;;4787808;29;19995;-78
2022/03/13 02:51:54;;;;;;;;;;;4.90;99.90;;;;;;4787505;29;19921;-78
2022/03/13 02:54:20;;;;;;;;;;;4.80;99.90;;;;;;4788125;29;19994;-78
2022/03/13 02:56:46;;;;;;;;;;;4.80;99.90;;;;;;4787338;29;20657;-78
2022/03/13 02:59:12;;;;;;;;;;;4.70;99.90;;;;;;4787679;29;20384;-78
2022/03/13 03:01:38;;;;;;;;;;;4.60;99.90;;;;;;4787562;29;20359;-78
2022/03/13 03:04:04;;;;;;;;;;;4.60;99.90;;;;;;4787252;29;20277;-78
2022/03/13 03:06:31;;;;;;;;;;;4.60;99.90;;;;;;4787289;29;19921;-78
2022/03/13 03:08:56;;;;;;;;;;;4.60;99.90;;;;;;4787122;29;20031;-78
2022/03/13 03:11:22;;;;;;;;;;;4.60;99.90;;;;;;4772483;29;20022;-78
2022/03/13 03:13:47;;;;;;;;;;;4.60;99.90;;;;;;4787316;29;20012;-78
2022/03/13 03:16:13;;;;;;;;;;;4.60;99.90;;;;;;4786701;29;20341;-78
2022/03/13 03:18:38;;;;;;;;;;;4.60;99.90;;;;;;4787325;29;19940;-78
2022/03/13 03:21:04;;;;;;;;;;;4.50;99.90;;;;;;4787433;29;19921;-78
2022/03/13 03:23:30;;;;;;;;;;;4.50;99.90;;;;;;4787388;29;19932;-78
2022/03/13 03:25:55;;;;;;;;;;;4.50;99.90;;;;;;4787004;29;19970;-78
2022/03/13 03:28:21;;;;;;;;;;;4.50;99.90;;;;;;4787092;29;20016;-78
2022/03/13 03:30:47;;;;;;;;;;;4.50;99.90;;;;;;4787508;29;19931;-78
2022/03/13 03:33:12;;;;;;;;;;;4.50;99.90;;;;;;4786197;29;20321;-78
2022/03/13 03:35:38;;;;;;;;;;;4.50;99.90;;;;;;4803257;29;19925;-78
2022/03/13 03:38:04;;;;;;;;;;;4.50;99.90;;;;;;4786817;29;19932;-78
2022/03/13 03:40:31;;;;;;;;;;;4.50;99.90;;;;;;4786322;29;19936;-78
2022/03/13 03:42:57;;;;;;;;;;;4.40;99.90;;;;;;4786523;29;20365;-78
2022/03/13 03:45:23;;;;;;;;;;;4.40;99.90;;;;;;4786991;29;20384;-78
2022/03/13 03:47:48;;;;;;;;;;;4.40;99.90;;;;;;4786795;29;20168;-78
2022/03/13 03:50:14;;;;;;;;;;;4.40;99.90;;;;;;4785242;29;19921;-78
2022/03/13 03:52:40;;;;;;;;;;;4.40;99.90;;;;;;4786596;29;20419;-78
2022/03/13 03:55:06;;;;;;;;;;;4.40;99.90;;;;;;4802863;29;19921;-77
2022/03/13 03:57:31;;;;;;;;;;;4.40;99.90;;;;;;4786584;29;19927;-78
2022/03/13 03:59:57;;;;;;;;;;;4.30;99.90;;;;;;4786607;29;19921;-78
2022/03/13 04:02:22;;;;;;;;;;;4.20;99.90;;;;;;4771791;29;19929;-77
2022/03/13 04:04:48;;;;;;;;;;;4.20;99.90;;;;;;4786543;29;19929;-77
2022/03/13 04:07:14;;;;;;;;;;;4.10;99.90;;;;;;4784912;29;20492;-78
2022/03/13 04:09:40;;;;;;;;;;;4.10;99.90;;;;;;4786364;29;19986;-78
2022/03/13 04:12:08;;;;;;;;;;;4.10;99.90;;;;;;4786649;29;19921;-78
2022/03/13 04:14:35;;;;;;;;;;;4.10;99.90;;;;;;4786476;29;19964;-78
2022/03/13 04:17:00;;;;;;;;;;;4.10;99.90;;;;;;4786352;29;19928;-78
2022/03/13 04:19:27;;;;;;;;;;;4.10;99.90;;;;;;4786469;29;19921;-78
2022/03/13 04:21:53;;;;;;;;;;;4.10;99.90;;;;;;4786859;29;19921;-78
2022/03/13 04:24:19;;;;;;;;;;;4.10;99.90;;;;;;4785995;29;19940;-78
2022/03/13 04:26:44;;;;;;;;;;;4.00;99.90;;;;;;4786101;29;19921;-78
2022/03/13 04:29:10;;;;;;;;;;;3.90;99.90;;;;;;4786515;29;19932;-78
2022/03/13 04:31:37;;;;;;;;;;;3.90;99.90;;;;;;4786820;29;20416;-78
2022/03/13 04:34:03;;;;;;;;;;;3.70;99.90;;;;;;4786408;29;19921;-78
2022/03/13 04:36:30;;;;;;;;;;;3.70;99.90;;;;;;4786408;29;20365;-78
2022/03/13 04:38:56;;;;;;;;;;;3.50;99.90;;;;;;4786477;29;20004;-78
2022/03/13 04:41:21;;;;;;;;;;;3.40;99.90;;;;;;4771310;29;20028;-78
2022/03/13 04:43:47;;;;;;;;;;;3.30;99.90;;;;;;4785682;29;19921;-77
2022/03/13 04:46:14;;;;;;;;;;;3.10;99.90;;;;;;4785960;29;19932;-77
2022/03/13 04:48:40;;;;;;;;;;;3.00;99.90;;;;;;4786190;29;20353;-77
2022/03/13 04:51:05;;;;;;;;;;;3.00;99.90;;;;;;4787921;29;19964;-77
2022/03/13 04:53:31;;;;;;;;;;;3.00;99.90;;;;;;4790077;29;19921;-77
2022/03/13 04:55:56;;;;;;;;;;;3.00;99.90;;;;;;4774681;29;19986;-77
2022/03/13 04:58:22;;;;;;;;;;;3.00;99.90;;;;;;4787265;29;19986;-77
2022/03/13 05:00:47;;;;;;;;;;;3.10;99.90;;;;;;4787989;29;19944;-77
2022/03/13 05:03:13;;;;;;;;;;;3.10;99.90;;;;;;4790131;29;19956;-77
2022/03/13 05:05:40;;;;;;;;;;;3.10;99.90;;;;;;4774446;29;20016;-77
2022/03/13 05:08:06;;;;;;;;;;;3.10;99.90;;;;;;4789163;29;19979;-77
2022/03/13 05:10:38;;;;;;;;;;;3.10;99.90;;;;;;4789351;29;20185;-77
2022/03/13 05:13:07;;;;;;;;;;;3.10;99.90;;;;;;4789482;29;20372;-77
2022/03/13 05:15:33;;;;;;;;;;;3.00;99.90;;;;;;4789211;29;19921;-77
2022/03/13 05:17:59;;;;;;;;;;;3.00;99.90;;;;;;4774332;29;19986;-77
2022/03/13 05:20:24;;;;;;;;;;;2.90;99.90;;;;;;4789211;29;19921;-77
2022/03/13 05:22:50;;;;;;;;;;;2.80;99.90;;;;;;4788992;29;19965;-77
2022/03/13 05:25:15;;;;;;;;;;;2.80;99.90;;;;;;4788925;29;19971;-77
2022/03/13 05:27:41;;;;;;;;;;;2.80;99.90;;;;;;4789083;29;19921;-77
2022/03/13 05:30:07;;;;;;;;;;;2.80;99.90;;;;;;4788540;29;19925;-77
2022/03/13 05:32:35;;;;;;;;;;;2.80;99.90;;;;;;4788831;29;20304;-78
2022/03/13 05:35:01;;;;;;;;;;;2.90;99.90;;;;;;4787740;29;20293;-78
2022/03/13 05:37:26;;;;;;;;;;;2.90;99.90;;;;;;4789078;29;19921;-78
2022/03/13 05:39:52;;;;;;;;;;;2.90;99.90;;;;;;4789093;29;19921;-77
2022/03/13 05:42:24;;;;;;;;;;;3.00;99.90;;;;;;4805110;29;19921;-77
2022/03/13 05:44:53;;;;;;;;;;;2.90;99.90;;;;;;4788921;29;19921;-77
2022/03/13 05:47:19;;;;;;;;;;;3.00;99.90;;;;;;4788593;29;19970;-77
2022/03/13 05:49:45;;;;;;;;;;;2.90;99.90;;;;;;4788937;29;19996;-77
2022/03/13 05:52:13;;;;;;;;;;;2.90;99.90;;;;;;4788027;29;19921;-77
2022/03/13 05:54:39;;;;;;;;;;;2.90;99.90;;;;;;4788667;29;19978;-78
2022/03/13 05:57:04;;;;;;;;;;;2.80;99.90;;;;;;4788577;29;19925;-78
2022/03/13 05:59:30;;;;;;;;;;;2.80;99.90;;;;;;4788564;29;19937;-77
2022/03/13 06:01:55;;;;;;;;;;;2.80;99.90;;;;;;4787648;29;19920;-77
2022/03/13 06:04:24;;;;;;;;;;;2.70;99.90;;;;;;4788399;29;19921;-77
2022/03/13 06:06:50;;;;;;;;;;;2.80;99.90;;;;;;4788015;29;19996;-77
2022/03/13 06:09:15;;;;;;;;;;;2.80;99.90;;;;;;4787256;29;19925;-77
2022/03/13 06:11:41;;;;;;;;;;;2.90;99.90;;;;;;4788138;29;19925;-77
2022/03/13 06:14:06;;;;;;;;;;;2.90;99.90;;;;;;4788267;29;19931;-77
2022/03/13 06:16:32;;;;;;;;;;;2.90;99.90;;;;;;4773152;29;19921;-77
2022/03/13 06:18:57;;;;;;;;;;;3.00;99.90;;;;;;4788310;29;20016;-77
2022/03/13 06:21:23;;;;;;;;;;;3.10;99.90;;;;;;4788124;29;19983;-77
2022/03/13 06:23:48;;;;;;;;;;;3.10;99.90;;;;;;4773523;29;19921;-77
2022/03/13 06:26:14;;;;;;;;;;;3.10;99.90;;;;;;4786317;29;19948;-77
2022/03/13 06:28:40;;;;;;;;;;;3.20;99.90;;;;;;4788085;29;19929;-77
2022/03/13 06:31:05;;;;;;;;;;;3.30;99.90;;;;;;4787866;29;19974;-77
2022/03/13 06:33:31;;;;;;;;;;;3.40;99.90;;;;;;4788137;29;19929;-78
2022/03/13 06:35:57;;;;;;;;;;;3.50;99.90;;;;;;4787402;29;19990;-77
2022/03/13 06:38:22;;;;;;;;;;;3.60;99.90;;;;;;4788229;29;19975;-77
2022/03/13 06:40:48;;;;;;;;;;;3.60;99.90;;;;;;4788338;29;20396;-77
2022/03/13 06:43:13;;;;;;;;;;;3.70;99.90;;;;;;4787931;29;19950;-77
2022/03/13 06:45:39;;;;;;;;;;;3.80;99.90;;;;;;4785306;29;19984;-77
2022/03/13 06:48:04;;;;;;;;;;;3.90;99.90;;;;;;4787633;29;19924;-78
2022/03/13 06:50:30;;;;;;;;;;;4.00;99.90;;;;;;4788166;29;19921;-78
2022/03/13 06:52:56;;;;;;;;;;;4.10;99.90;;;;;;4788148;29;20281;-78
2022/03/13 06:55:22;;;;;;;;;;;4.30;99.90;;;;;;4788030;29;19921;-78
2022/03/13 06:57:49;;;;;;;;;;;4.40;99.90;;;;;;4787371;29;19921;-77
2022/03/13 07:00:15;;;;;;;;;;;4.60;99.90;;;;;;4786386;29;20003;-77
2022/03/13 07:02:41;;;;;;;;;;;4.70;99.90;;;;;;4786882;29;20304;-77
2022/03/13 07:05:07;;;;;;;;;;;4.90;99.90;;;;;;4787297;29;20414;-78
2022/03/13 07:07:32;;;;;;;;;;;5.10;99.90;;;;;;4787078;29;19929;-77
2022/03/13 07:09:58;;;;;;;;;;;5.30;99.90;;;;;;4787394;29;20384;-77
2022/03/13 07:12:24;;;;;;;;;;;5.50;99.90;;;;;;4787492;29;19928;-77
2022/03/13 07:14:50;;;;;;;;;;;5.70;99.90;;;;;;4787372;29;19920;-77
2022/03/13 07:17:17;;;;;;;;;;;5.80;99.90;;;;;;4787120;29;19921;-77
2022/03/13 07:19:45;;;;;;;;;;;5.90;99.90;;;;;;4769738;29;19925;-77
2022/03/13 07:22:12;;;;;;;;;;;5.90;99.90;;;;;;4803119;29;19922;-78
2022/03/13 07:24:37;;;;;;;;;;;5.90;99.90;;;;;;4786941;29;20003;-77
2022/03/13 07:45:11;;;;;;;;;;;6.10;99.90;;;;;;5745638;24;19931;-78
2022/03/13 07:47:36;;;;;;;;;;;6.20;99.90;;;;;;4768185;30;19930;-76
2022/03/13 07:50:02;;;;;;;;;;;6.30;99.90;;;;;;4774045;30;20316;-76
2022/03/13 07:52:28;;;;;;;;;;;6.40;99.90;;;;;;4781883;29;19925;-77
2022/03/13 07:54:53;;;;;;;;;;;6.50;99.90;;;;;;4780504;29;19929;-76
2022/03/13 07:57:19;;;;;;;;;;;6.50;99.90;;;;;;4783365;29;19926;-76
2022/03/13 14:24:07;;;;;;;;;;;20.70;36.80;;;;;;5801141;24;20247;31
2022/03/13 14:26:33;;;;;;;;;;;20.70;36.30;;;;;;4780263;30;19987;-83
2022/03/13 14:28:59;;;;;;;;;;;20.80;35.40;;;;;;4766775;30;19922;-78
2022/03/13 14:31:25;;;;;;;;;;;20.90;35.60;;;;;;4747342;30;20012;-79
2022/03/13 14:33:50;;;;;;;;;;;20.70;36.30;;;;;;4754816;30;19972;-79
2022/03/13 14:36:16;;;;;;;;;;;20.70;36.30;;;;;;4769872;30;20446;-78
2022/03/13 16:48:11;;;;;;;;;;;14.80;47.40;;;;;;5230797;24;19933;-78
2022/03/13 16:50:36;;;;;;;;;;;14.60;47.90;;;;;;4774217;30;19941;-78
2022/03/13 16:53:02;;;;;;;;;;;14.30;48.10;;;;;;4747290;30;20373;-78
2022/03/13 16:55:27;;;;;;;;;;;14.10;48.50;;;;;;4748325;30;19925;-78
2022/03/13 16:57:54;;;;;;;;;;;13.90;49.10;;;;;;4754551;30;19928;-78
2022/03/13 17:00:19;;;;;;;;;;;13.70;49.80;;;;;;4759710;30;20019;-78
2022/03/13 17:02:45;;;;;;;;;;;13.50;50.40;;;;;;4757420;30;20007;-79
2022/03/13 17:05:11;;;;;;;;;;;13.30;50.70;;;;;;4757163;30;19922;-79
2022/03/13 17:07:36;;;;;;;;;;;13.10;51.10;;;;;;4756502;30;19922;-79
2022/03/13 17:10:06;;;;;;;;;;;12.90;50.90;;;;;;4756330;30;20012;-79
2022/03/13 17:12:31;;;;;;;;;;;12.80;51.40;;;;;;4756152;30;19922;-79
2022/03/13 17:14:57;;;;;;;;;;;12.60;52.20;;;;;;4756460;30;20012;-79
2022/03/13 17:17:23;;;;;;;;;;;12.40;52.90;;;;;;4770182;30;19988;-79
2022/03/13 17:19:50;;;;;;;;;;;12.30;52.90;;;;;;4755418;30;19964;-78
2022/03/13 17:22:16;;;;;;;;;;;12.20;52.10;;;;;;4756114;30;19932;-79
2022/03/13 17:24:41;;;;;;;;;;;12.10;52.20;;;;;;4771774;30;20442;-79
2022/03/13 17:27:07;;;;;;;;;;;11.90;52.10;;;;;;4769298;30;19921;-79
2022/03/13 17:29:32;;;;;;;;;;;11.80;53.80;;;;;;4755464;30;19955;-78
2022/03/13 17:31:58;;;;;;;;;;;11.60;54.30;;;;;;4755584;30;19922;-78
2022/03/13 17:34:24;;;;;;;;;;;11.50;56.30;;;;;;4755230;30;19922;-78
2022/03/13 17:36:50;;;;;;;;;;;11.30;53.70;;;;;;4754636;30;19929;-79
2022/03/13 17:39:16;;;;;;;;;;;11.10;57.30;;;;;;4755126;30;19921;-79
2022/03/13 17:41:42;;;;;;;;;;;11.00;58.30;;;;;;4755092;30;19925;-79
2022/03/13 17:44:08;;;;;;;;;;;10.80;58.30;;;;;;4754697;30;20256;-79
2022/03/13 17:46:34;;;;;;;;;;;10.70;59.40;;;;;;4754515;30;20270;-79
2022/03/13 17:49:00;;;;;;;;;;;10.50;59.00;;;;;;4754113;30;19936;-79
2022/03/13 17:51:25;;;;;;;;;;;10.50;62.60;;;;;;4755072;30;20001;-79
2022/03/13 17:53:51;;;;;;;;;;;10.40;64.10;;;;;;4754760;30;19928;-79
2022/03/13 17:56:16;;;;;;;;;;;10.40;66.80;;;;;;4753697;30;19976;-79
2022/03/13 17:58:42;;;;;;;;;;;10.30;69.30;;;;;;4753726;30;19921;-79
2022/03/13 18:01:12;;;;;;;;;;;10.30;68.90;;;;;;4740184;30;19983;-79
2022/03/13 18:03:38;;;;;;;;;;;10.40;70.60;;;;;;4754904;30;20016;-79
2022/03/13 18:06:03;;;;;;;;;;;10.30;73.10;;;;;;4754201;30;20412;-79
2022/03/13 18:08:29;;;;;;;;;;;10.30;72.30;;;;;;4754506;30;20392;-79
2022/03/13 18:10:55;;;;;;;;;;;10.20;77.40;;;;;;4753814;30;19922;-79
2022/03/13 18:13:20;;;;;;;;;;;10.10;79.20;;;;;;4753924;30;19972;-79
2022/03/13 18:15:46;;;;;;;;;;;10.00;82.50;;;;;;4753435;30;19926;-79
2022/03/13 18:18:12;;;;;;;;;;;10.00;82.40;;;;;;4754301;30;20334;-79
2022/03/13 18:20:38;;;;;;;;;;;10.00;83.30;;;;;;4754048;30;19983;-78
2022/03/13 18:23:03;;;;;;;;;;;9.90;80.90;;;;;;4754716;30;20297;-78
2022/03/13 18:25:28;;;;;;;;;;;9.90;78.90;;;;;;4753829;30;20343;-79
2022/03/13 18:27:54;;;;;;;;;;;9.80;70.20;;;;;;4752806;30;19965;-78
2022/03/13 18:30:21;;;;;;;;;;;9.70;83.30;;;;;;4753581;30;20001;-78
2022/03/13 18:32:46;;;;;;;;;;;9.60;79.90;;;;;;4754262;30;19932;-78
2022/03/13 18:35:12;;;;;;;;;;;9.60;86.30;;;;;;4753920;30;19933;-78
2022/03/13 18:37:37;;;;;;;;;;;9.50;84.10;;;;;;4754246;30;19929;-78
2022/03/13 18:40:03;;;;;;;;;;;9.50;91.40;;;;;;4754159;30;20316;-78
2022/03/13 18:42:28;;;;;;;;;;;9.50;92.00;;;;;;4738933;30;19921;-79
2022/03/13 18:44:54;;;;;;;;;;;9.50;93.80;;;;;;4753303;30;19934;-78
2022/03/13 18:47:19;;;;;;;;;;;9.60;90.50;;;;;;4768044;30;19930;-79
2022/03/13 18:49:45;;;;;;;;;;;9.60;90.20;;;;;;4768196;30;19932;-79
2022/03/13 18:52:11;;;;;;;;;;;9.70;88.30;;;;;;4753418;30;20017;-78
2022/03/13 18:54:36;;;;;;;;;;;9.80;84.00;;;;;;4752103;30;20479;-78
2022/03/13 18:57:04;;;;;;;;;;;9.80;85.50;;;;;;4773387;30;20024;-78
2022/03/13 18:59:29;;;;;;;;;;;9.90;80.90;;;;;;4753297;30;19921;-78
2022/03/13 19:01:55;;;;;;;;;;;9.90;82.70;;;;;;4739499;30;20429;-78
2022/03/13 19:04:20;;;;;;;;;;;9.90;74.50;;;;;;4754168;30;20016;-78
2022/03/13 19:06:46;;;;;;;;;;;9.90;81.50;;;;;;4753909;30;19925;-78
2022/03/13 19:09:13;;;;;;;;;;;9.80;82.20;;;;;;4753891;30;19933;-78
2022/03/13 19:11:38;;;;;;;;;;;9.80;84.60;;;;;;4753604;30;19921;-79
2022/03/13 19:14:04;;;;;;;;;;;9.80;84.00;;;;;;4753606;30;19997;-78
2022/03/13 19:16:29;;;;;;;;;;;9.70;90.10;;;;;;4752955;30;19928;-78
2022/03/13 19:18:56;;;;;;;;;;;9.60;84.60;;;;;;4753823;30;20016;-78
2022/03/13 19:21:22;;;;;;;;;;;9.50;84.60;;;;;;4770129;30;19979;-78
2022/03/13 19:23:47;;;;;;;;;;;9.50;84.20;;;;;;4770185;30;20347;-78
2022/03/13 19:26:13;;;;;;;;;;;9.50;85.80;;;;;;4752729;30;19922;-78
2022/03/13 19:28:39;;;;;;;;;;;9.50;85.40;;;;;;4752358;30;19960;-78
2022/03/13 19:31:04;;;;;;;;;;;9.50;78.80;;;;;;4752977;30;19921;-78
2022/03/13 19:33:31;;;;;;;;;;;9.40;80.30;;;;;;4753007;30;19922;-78
2022/03/13 19:35:56;;;;;;;;;;;9.40;79.10;;;;;;4752955;30;19925;-78
2022/03/13 19:38:22;;;;;;;;;;;9.40;76.20;;;;;;4752899;30;19921;-78
2022/03/13 19:40:48;;;;;;;;;;;9.40;75.10;;;;;;4753270;30;20008;-78
2022/03/13 19:43:13;;;;;;;;;;;9.40;73.90;;;;;;4753193;30;19921;-78
2022/03/13 19:45:39;;;;;;;;;;;9.30;76.70;;;;;;4752263;30;19945;-78
2022/03/13 19:48:04;;;;;;;;;;;9.20;76.30;;;;;;4752808;30;20294;-78
2022/03/13 19:50:31;;;;;;;;;;;9.20;75.60;;;;;;4753010;30;19926;-78
2022/03/13 19:52:58;;;;;;;;;;;9.10;72.90;;;;;;4753058;30;20443;-78
2022/03/13 19:55:24;;;;;;;;;;;9.10;70.70;;;;;;4754739;30;19977;-79
2022/03/13 19:57:50;;;;;;;;;;;9.10;72.90;;;;;;4759944;30;19922;-78
2022/03/13 20:00:19;;;;;;;;;;;9.10;71.40;;;;;;4762813;30;19929;-78
2022/03/13 20:02:45;;;;;;;;;;;9.10;70.90;;;;;;4761005;30;19952;-78
2022/03/13 20:05:12;;;;;;;;;;;9.10;71.80;;;;;;4759285;30;19921;-78
2022/03/13 20:07:38;;;;;;;;;;;9.10;72.30;;;;;;4756644;30;19929;-78
2022/03/13 20:10:06;;;;;;;;;;;9.00;73.50;;;;;;4758231;30;19979;-78
2022/03/13 20:12:32;;;;;;;;;;;8.90;74.40;;;;;;4754578;30;19933;-78
2022/03/13 20:14:59;;;;;;;;;;;8.80;77.80;;;;;;4754392;30;19932;-78
2022/03/13 20:17:24;;;;;;;;;;;8.70;80.50;;;;;;4753231;30;20008;-78
2022/03/13 20:19:50;;;;;;;;;;;8.60;82.80;;;;;;4752840;30;20173;-78
2022/03/13 20:22:16;;;;;;;;;;;8.60;84.20;;;;;;4770210;30;19929;-78
2022/03/13 20:24:42;;;;;;;;;;;8.60;84.70;;;;;;4756499;30;19929;-78
2022/03/13 20:27:09;;;;;;;;;;;8.60;88.00;;;;;;4770503;30;19922;-78
2022/03/13 20:29:34;;;;;;;;;;;8.60;89.80;;;;;;4755901;30;20044;-78
2022/03/13 20:32:01;;;;;;;;;;;8.60;89.00;;;;;;4756441;30;19929;-78
2022/03/13 20:34:26;;;;;;;;;;;8.60;85.00;;;;;;4771093;30;19938;-78
2022/03/13 20:36:52;;;;;;;;;;;8.70;85.50;;;;;;4770397;30;19922;-78
2022/03/13 20:39:18;;;;;;;;;;;8.70;86.70;;;;;;4756448;30;20028;-78
2022/03/13 20:41:45;;;;;;;;;;;8.70;84.00;;;;;;4756615;30;19922;-78
2022/03/13 20:44:11;;;;;;;;;;;8.70;83.20;;;;;;4770977;30;19921;-78
2022/03/13 20:46:37;;;;;;;;;;;8.60;84.40;;;;;;4756164;30;19983;-78
2022/03/13 20:49:03;;;;;;;;;;;8.60;81.10;;;;;;4771231;30;19972;-78
2022/03/13 20:51:28;;;;;;;;;;;8.60;82.60;;;;;;4756425;30;19922;-78
2022/03/13 20:53:54;;;;;;;;;;;8.50;82.60;;;;;;4770937;30;19991;-78
2022/03/13 20:56:19;;;;;;;;;;;8.50;82.50;;;;;;4769524;30;19932;-78
2022/03/13 20:58:45;;;;;;;;;;;8.40;83.40;;;;;;4770430;30;19928;-78
2022/03/13 21:01:12;;;;;;;;;;;8.30;84.90;;;;;;4755409;30;19922;-78
2022/03/13 21:03:38;;;;;;;;;;;8.30;83.40;;;;;;4755684;30;20329;-78
2022/03/13 21:06:03;;;;;;;;;;;8.30;85.50;;;;;;4755111;30;20008;-78
2022/03/13 21:08:29;;;;;;;;;;;8.20;84.50;;;;;;4770365;30;20013;-78
2022/03/13 21:10:55;;;;;;;;;;;8.20;85.80;;;;;;4768789;30;19929;-78
2022/03/13 21:13:24;;;;;;;;;;;8.20;85.80;;;;;;4769184;30;20415;-78
2022/03/13 21:15:50;;;;;;;;;;;8.20;85.80;;;;;;4754592;30;20267;-78
2022/03/13 21:18:15;;;;;;;;;;;8.10;85.60;;;;;;4770437;30;19979;-78
2022/03/13 21:20:41;;;;;;;;;;;8.10;86.80;;;;;;4754979;30;19921;-79
2022/03/13 21:23:07;;;;;;;;;;;8.00;86.20;;;;;;4770457;30;19972;-78
2022/03/13 21:25:32;;;;;;;;;;;8.10;86.10;;;;;;4753937;30;20700;-78
2022/03/13 21:27:58;;;;;;;;;;;8.10;85.50;;;;;;4770822;30;20016;-78
2022/03/13 21:30:24;;;;;;;;;;;8.00;87.30;;;;;;4754793;30;19926;-78
2022/03/13 21:32:52;;;;;;;;;;;8.00;87.30;;;;;;4755256;30;19922;-78
2022/03/13 21:35:18;;;;;;;;;;;8.00;89.30;;;;;;4755174;30;19926;-78
2022/03/13 21:37:44;;;;;;;;;;;8.00;88.80;;;;;;4739413;30;20427;-78
2022/03/13 21:40:10;;;;;;;;;;;8.00;90.30;;;;;;4754444;30;19922;-78
2022/03/13 21:42:36;;;;;;;;;;;8.00;91.10;;;;;;4753173;30;19924;-78
2022/03/13 21:45:03;;;;;;;;;;;8.00;91.30;;;;;;4754359;30;19933;-78
2022/03/13 21:47:29;;;;;;;;;;;8.10;90.70;;;;;;4753462;30;20420;-78
2022/03/13 21:49:54;;;;;;;;;;;8.10;90.10;;;;;;4754840;30;19926;-78
2022/03/13 21:52:21;;;;;;;;;;;8.10;90.50;;;;;;4769049;30;19929;-78
2022/03/13 21:54:46;;;;;;;;;;;8.20;86.80;;;;;;4769234;30;19925;-78
2022/03/13 21:57:13;;;;;;;;;;;8.20;89.80;;;;;;4768462;30;19944;-78
2022/03/13 21:59:38;;;;;;;;;;;8.20;90.00;;;;;;4769571;30;20356;-78
2022/03/13 22:02:04;;;;;;;;;;;8.20;90.20;;;;;;4754708;30;20082;-78
2022/03/13 22:04:30;;;;;;;;;;;8.20;88.40;;;;;;4754716;30;19957;-78
2022/03/13 22:06:58;;;;;;;;;;;8.20;91.00;;;;;;4753571;30;19991;-78
2022/03/13 22:09:24;;;;;;;;;;;8.20;91.60;;;;;;4754464;30;20020;-78
2022/03/13 22:11:49;;;;;;;;;;;8.20;91.20;;;;;;4755027;30;19968;-78
2022/03/13 22:14:16;;;;;;;;;;;8.20;92.70;;;;;;4754186;30;19933;-78
2022/03/13 22:16:42;;;;;;;;;;;8.20;92.50;;;;;;4754498;30;19928;-78
2022/03/13 22:19:08;;;;;;;;;;;8.10;91.70;;;;;;4769815;30;20011;-78
2022/03/13 22:21:34;;;;;;;;;;;8.10;92.80;;;;;;4754765;30;20016;-78
2022/03/13 22:23:59;;;;;;;;;;;8.10;92.50;;;;;;4769651;30;20385;-78
2022/03/13 22:26:25;;;;;;;;;;;8.20;93.20;;;;;;4754749;30;19922;-78
2022/03/13 22:28:50;;;;;;;;;;;8.30;92.60;;;;;;4754996;30;19972;-78
2022/03/13 22:31:18;;;;;;;;;;;8.30;94.10;;;;;;4754234;30;19921;-78
2022/03/13 22:33:43;;;;;;;;;;;8.30;94.10;;;;;;4754614;30;20020;-78
2022/03/13 22:36:09;;;;;;;;;;;8.30;93.60;;;;;;4769485;30;20353;-78
2022/03/13 22:38:34;;;;;;;;;;;8.40;92.20;;;;;;4754730;30;19945;-77
2022/03/13 22:41:00;;;;;;;;;;;8.40;93.00;;;;;;4754739;30;20207;-78
2022/03/13 22:43:26;;;;;;;;;;;8.50;92.70;;;;;;4754229;30;19921;-78
2022/03/13 22:45:52;;;;;;;;;;;8.50;96.10;;;;;;4769564;30;19926;-78
2022/03/13 22:48:17;;;;;;;;;;;8.40;96.40;;;;;;4769031;30;19957;-78
2022/03/13 22:51:01;;;;;;;;;;;8.40;96.60;;;;;;4754197;30;19994;-78
2022/03/13 22:53:27;;;;;;;;;;;8.40;98.50;;;;;;4769538;30;19921;-78
2022/03/13 22:55:55;;;;;;;;;;;8.30;99.90;;;;;;4770659;30;19928;-78
2022/03/13 22:58:28;;;;;;;;;;;8.30;99.80;;;;;;4754413;30;19921;-78
2022/03/13 23:00:53;;;;;;;;;;;8.20;99.90;;;;;;4768849;30;20211;-78
